Time;durP1;ratioP1;P1;durP2;ratioP2;P2;SDS_P1;SDS_P2;PMS_P1;PMS_P2;Temp;Humidity;BMP_temperature;BMP_pressure;BME280_temperature;BME280_humidity;BME280_pressure;Samples;Min_cycle;Max_cycle;Signal;HPM_P1;HPM_P2
2023/09/27 00:21:26;;;;;;;11.40;7.30;;;21.90;69.40;;;;;;2351295;28;23698;-70
2023/09/27 00:23:53;;;;;;;10.60;6.97;;;22.00;67.40;;;;;;4982024;28;20292;-75
2023/09/27 00:26:21;;;;;;;8.67;5.77;;;22.00;67.60;;;;;;4983617;28;20186;-73
2023/09/27 00:28:48;;;;;;;13.47;6.40;;;21.80;68.10;;;;;;4990643;28;20261;-75
2023/09/27 00:31:16;;;;;;;9.73;6.13;;;21.90;67.90;;;;;;4990485;28;20697;-73
2023/09/27 00:33:43;;;;;;;11.17;7.10;;;22.30;66.70;;;;;;4991753;28;20214;-74
2023/09/27 00:36:10;;;;;;;14.20;7.03;;;22.30;67.20;;;;;;4991589;28;20217;-70
2023/09/27 00:38:37;;;;;;;12.77;5.97;;;22.30;67.10;;;;;;4992518;28;20184;-75
2023/09/27 00:41:06;;;;;;;13.43;7.93;;;22.50;66.70;;;;;;4992396;28;20272;-73
2023/09/27 00:43:35;;;;;;;11.70;7.93;;;22.60;64.60;;;;;;4992274;28;20178;-74
2023/09/27 00:46:05;;;;;;;13.17;8.30;;;22.40;63.20;;;;;;4992038;28;20241;-75
2023/09/27 00:48:34;;;;;;;12.53;8.47;;;22.40;63.70;;;;;;4990262;28;20273;-74
2023/09/27 00:51:04;;;;;;;9.60;7.80;;;22.30;64.60;;;;;;4992670;28;20210;-74
2023/09/27 00:53:36;;;;;;;11.17;7.67;;;22.40;63.00;;;;;;4988339;28;20186;-73
2023/09/27 00:56:04;;;;;;;13.33;8.90;;;22.50;63.40;;;;;;4988545;28;20182;-74
2023/09/27 00:58:32;;;;;;;12.83;8.20;;;22.90;62.60;;;;;;4991744;28;20249;-71
2023/09/27 01:01:00;;;;;;;12.93;8.17;;;22.80;61.90;;;;;;4992959;28;20585;-71
2023/09/27 01:03:28;;;;;;;11.57;7.90;;;23.00;61.50;;;;;;4995498;28;20177;-71
2023/09/27 01:05:58;;;;;;;12.17;9.30;;;23.40;58.60;;;;;;4997156;28;20264;-71
2023/09/27 01:08:26;;;;;;;16.13;8.70;;;23.70;59.00;;;;;;4994191;28;20235;-71
2023/09/27 01:10:53;;;;;;;15.27;9.10;;;23.40;58.40;;;;;;4994394;28;20209;-71
2023/09/27 01:13:21;;;;;;;10.17;8.33;;;23.20;59.30;;;;;;4994301;28;20213;-70
2023/09/27 01:15:49;;;;;;;15.30;8.90;;;22.80;59.90;;;;;;4994475;28;20694;-72
2023/09/27 01:18:16;;;;;;;11.63;7.87;;;22.80;61.00;;;;;;4995331;28;20178;-71
2023/09/27 01:20:44;;;;;;;10.40;7.63;;;22.90;60.70;;;;;;4997880;28;20189;-70
2023/09/27 01:23:11;;;;;;;11.43;8.37;;;22.80;61.70;;;;;;4995614;28;20572;-71
2023/09/27 01:25:39;;;;;;;10.63;8.10;;;23.00;61.60;;;;;;4996347;28;20174;-70
2023/09/27 01:28:11;;;;;;;11.93;8.43;;;22.90;62.00;;;;;;4995947;28;20189;-70
2023/09/27 01:30:39;;;;;;;11.97;8.37;;;22.70;62.50;;;;;;4995258;28;20241;-70
2023/09/27 01:33:08;;;;;;;13.50;7.53;;;22.70;63.00;;;;;;4995167;28;20181;-70
2023/09/27 01:35:40;;;;;;;11.33;8.67;;;22.60;62.40;;;;;;4995771;28;20182;-70
2023/09/27 01:38:09;;;;;;;13.50;8.97;;;22.50;63.70;;;;;;4995195;28;20182;-74
2023/09/27 01:40:40;;;;;;;12.97;9.50;;;22.70;63.30;;;;;;4995981;28;20186;-71
2023/09/27 01:43:07;;;;;;;11.03;8.57;;;22.90;62.60;;;;;;4995620;28;20190;-71
2023/09/27 01:45:36;;;;;;;12.70;8.07;;;23.10;63.00;;;;;;4994825;28;20265;-70
2023/09/27 01:48:04;;;;;;;11.73;8.00;;;23.20;61.60;;;;;;4995614;28;20194;-71
2023/09/27 01:50:35;;;;;;;9.10;8.10;;;23.10;61.20;;;;;;4995856;28;20591;-71
2023/09/27 01:53:03;;;;;;;13.83;8.87;;;23.30;60.90;;;;;;4995357;28;20193;-71
2023/09/27 01:55:31;;;;;;;14.47;8.57;;;23.20;61.40;;;;;;4994102;28;20190;-70
2023/09/27 01:57:59;;;;;;;12.03;8.50;;;23.30;60.30;;;;;;4995423;28;20610;-69
2023/09/27 02:00:27;;;;;;;16.63;9.03;;;23.20;60.70;;;;;;4989916;28;20196;-70
2023/09/27 02:03:02;;;;;;;10.63;8.10;;;23.30;60.50;;;;;;4992775;28;20237;-72
2023/09/27 02:05:30;;;;;;;11.67;7.90;;;23.50;60.10;;;;;;4991005;28;20196;-70
2023/09/27 02:07:58;;;;;;;11.90;8.47;;;23.30;59.50;;;;;;4989298;28;20201;-71
2023/09/27 02:10:25;;;;;;;8.53;7.37;;;23.70;59.20;;;;;;4994635;28;20220;-73
2023/09/27 02:12:53;;;;;;;12.07;7.20;;;24.40;57.40;;;;;;4994899;28;20189;-71
2023/09/27 02:15:20;;;;;;;11.40;7.10;;;24.40;55.50;;;;;;4991155;28;20864;-71
2023/09/27 02:17:48;;;;;;;8.93;7.03;;;24.30;56.90;;;;;;4977954;28;20190;-68
2023/09/27 02:20:20;;;;;;;7.57;6.77;;;24.10;57.00;;;;;;4995181;28;20308;-70
2023/09/27 02:22:49;;;;;;;14.10;7.63;;;24.30;57.20;;;;;;4996074;28;20736;-68
2023/09/27 02:25:17;;;;;;;12.20;7.10;;;24.40;57.60;;;;;;5006305;28;20185;-70
2023/09/27 02:27:44;;;;;;;10.57;6.23;;;24.00;58.00;;;;;;5005072;28;20200;-70
2023/09/27 02:30:12;;;;;;;11.93;5.30;;;23.50;60.30;;;;;;5001522;28;20190;-71
2023/09/27 02:32:45;;;;;;;8.17;5.43;;;23.60;60.60;;;;;;5005474;28;20648;-69
2023/09/27 02:35:19;;;;;;;10.63;5.33;;;23.80;60.00;;;;;;5000901;28;20320;-70
2023/09/27 02:37:46;;;;;;;8.27;5.00;;;24.50;58.30;;;;;;5004146;28;20541;-72
2023/09/27 02:40:14;;;;;;;10.57;5.07;;;24.70;57.70;;;;;;5007691;28;20181;-71
2023/09/27 02:42:42;;;;;;;8.30;5.33;;;25.10;57.20;;;;;;5004243;28;20209;-72
2023/09/27 02:45:11;;;;;;;10.10;5.67;;;25.50;55.90;;;;;;5000181;28;20217;-71
2023/09/27 02:47:40;;;;;;;9.73;5.87;;;25.60;54.50;;;;;;5005253;28;20178;-69
2023/09/27 02:50:14;;;;;;;12.87;5.57;;;25.20;55.60;;;;;;5007863;28;20559;-68
2023/09/27 02:52:43;;;;;;;8.57;5.20;;;25.50;54.60;;;;;;4998238;28;20644;-72
2023/09/27 02:55:12;;;;;;;9.17;4.90;;;25.20;55.10;;;;;;4983860;28;20628;-71
2023/09/27 02:57:39;;;;;;;11.97;5.70;;;24.90;55.50;;;;;;4987491;28;20366;-73
2023/09/27 03:00:08;;;;;;;8.63;5.87;;;25.00;55.30;;;;;;4999413;28;20662;-70
2023/09/27 03:02:36;;;;;;;7.90;5.57;;;25.00;56.70;;;;;;5003507;28;20182;-70
2023/09/27 03:05:06;;;;;;;12.17;4.90;;;25.30;55.90;;;;;;4999862;28;20193;-73
2023/09/27 03:07:38;;;;;;;7.97;5.10;;;25.30;55.50;;;;;;5004856;28;20178;-71
2023/09/27 03:10:08;;;;;;;11.63;4.70;;;25.50;55.10;;;;;;5007354;28;20200;-72
2023/09/27 03:12:35;;;;;;;11.17;4.93;;;25.30;54.70;;;;;;5003465;28;20223;-72
2023/09/27 03:15:03;;;;;;;9.17;4.70;;;25.60;54.40;;;;;;5000047;28;20201;-73
2023/09/27 03:17:30;;;;;;;9.33;4.17;;;25.30;54.90;;;;;;5005506;28;20565;-69
2023/09/27 03:19:58;;;;;;;7.10;4.57;;;25.60;54.90;;;;;;5002043;28;20221;-73
2023/09/27 03:22:25;;;;;;;9.90;4.43;;;25.70;54.50;;;;;;4997690;28;20230;-71
2023/09/27 03:24:52;;;;;;;7.53;4.50;;;25.70;54.80;;;;;;5006506;28;20193;-71
2023/09/27 03:27:20;;;;;;;11.67;4.83;;;25.80;54.50;;;;;;5000587;28;20189;-70
2023/09/27 03:29:47;;;;;;;7.17;4.20;;;25.80;54.70;;;;;;5001353;28;20200;-70
2023/09/27 03:32:14;;;;;;;6.50;4.03;;;25.60;53.90;;;;;;5005881;28;20815;-69
2023/09/27 03:34:42;;;;;;;9.57;3.80;;;25.50;54.70;;;;;;5004513;28;20693;-69
2023/09/27 03:37:09;;;;;;;8.87;4.47;;;25.60;54.20;;;;;;5000993;28;20185;-70
2023/09/27 03:39:36;;;;;;;10.03;4.57;;;25.60;53.80;;;;;;5002648;28;20550;-70
2023/09/27 03:42:04;;;;;;;8.23;4.53;;;25.50;54.20;;;;;;5005682;28;20197;-69
2023/09/27 03:44:32;;;;;;;10.20;4.20;;;25.40;54.60;;;;;;5003482;28;20220;-70
2023/09/27 03:46:59;;;;;;;7.00;3.67;;;25.80;53.60;;;;;;5002554;28;20267;-69
2023/09/27 03:49:26;;;;;;;7.70;3.40;;;25.50;54.30;;;;;;5003486;28;20397;-70
2023/09/27 03:51:54;;;;;;;5.93;3.53;;;26.00;53.20;;;;;;5000911;28;20224;-71
2023/09/27 03:54:22;;;;;;;8.17;3.83;;;25.80;53.40;;;;;;5003047;28;20643;-71
2023/09/27 03:56:49;;;;;;;9.33;4.23;;;25.60;53.80;;;;;;5007258;28;20529;-70
2023/09/27 03:59:16;;;;;;;8.17;4.03;;;25.30;55.10;;;;;;4997389;28;20241;-70
2023/09/27 04:01:44;;;;;;;10.90;4.27;;;25.60;54.90;;;;;;5006298;28;20193;-70
2023/09/27 04:04:14;;;;;;;7.70;4.00;;;26.30;53.10;;;;;;5002345;28;20188;-72
2023/09/27 04:06:41;;;;;;;9.73;4.23;;;26.40;51.60;;;;;;4999141;28;20240;-70
2023/09/27 04:09:09;;;;;;;6.50;3.43;;;26.50;52.20;;;;;;5005065;28;20590;-73
2023/09/27 04:11:37;;;;;;;7.87;4.10;;;26.90;51.40;;;;;;4992655;28;20221;-71
2023/09/27 04:14:05;;;;;;;5.93;3.87;;;26.70;52.00;;;;;;5005646;28;20182;-71
2023/09/27 04:16:33;;;;;;;9.27;4.23;;;26.60;50.90;;;;;;5005482;28;20228;-71
2023/09/27 04:19:00;;;;;;;6.83;4.00;;;27.10;50.20;;;;;;5000869;28;20177;-72
2023/09/27 04:21:28;;;;;;;8.23;4.27;;;27.10;50.10;;;;;;5001463;28;20190;-70
2023/09/27 04:23:59;;;;;;;10.37;5.73;;;26.10;52.50;;;;;;5000410;28;20224;-68
2023/09/27 04:26:27;;;;;;;9.07;4.37;;;26.10;53.50;;;;;;5001221;28;20189;-71
2023/09/27 04:28:54;;;;;;;10.20;4.70;;;26.20;52.50;;;;;;4987995;28;20709;-71
2023/09/27 04:31:22;;;;;;;8.60;4.17;;;25.60;54.20;;;;;;5003391;28;20234;-70
2023/09/27 04:33:50;;;;;;;9.00;4.13;;;25.50;55.30;;;;;;5000438;28;20264;-72
2023/09/27 04:36:17;;;;;;;10.57;3.90;;;25.60;55.20;;;;;;5002134;28;20239;-71
2023/09/27 04:38:46;;;;;;;8.80;3.63;;;25.00;56.20;;;;;;5004500;28;20178;-69
2023/09/27 04:41:15;;;;;;;8.67;3.50;;;25.30;56.30;;;;;;4995933;28;20697;-73
2023/09/27 04:43:43;;;;;;;9.60;3.73;;;25.30;55.80;;;;;;4992497;28;20209;-71
2023/09/27 04:46:17;;;;;;;9.97;4.77;;;25.60;55.40;;;;;;4995639;28;20190;-71
2023/09/27 04:48:44;;;;;;;6.00;3.50;;;25.10;55.70;;;;;;4998051;28;20185;-73
2023/09/27 04:51:12;;;;;;;5.87;3.23;;;24.60;57.90;;;;;;5002549;28;20206;-70
2023/09/27 04:53:39;;;;;;;8.33;3.37;;;24.30;59.10;;;;;;5000998;28;20185;-74
2023/09/27 04:56:11;;;;;;;7.50;3.87;;;24.60;58.60;;;;;;5002361;28;20196;-71
2023/09/27 04:58:41;;;;;;;7.30;4.20;;;23.90;59.50;;;;;;4995946;28;20220;-70
2023/09/27 05:01:11;;;;;;;9.93;3.90;;;23.80;60.00;;;;;;4997406;28;20185;-70
2023/09/27 05:03:39;;;;;;;8.80;3.87;;;23.70;60.60;;;;;;4995951;28;20189;-70
2023/09/27 05:06:07;;;;;;;7.90;3.97;;;23.50;61.40;;;;;;5001883;28;20198;-75
2023/09/27 05:08:34;;;;;;;8.63;3.77;;;23.60;61.40;;;;;;5005187;28;20188;-76
2023/09/27 05:11:01;;;;;;;7.73;3.67;;;23.40;62.00;;;;;;5002220;28;20664;-73
2023/09/27 05:13:29;;;;;;;8.10;4.03;;;23.30;62.50;;;;;;4996357;28;20182;-72
2023/09/27 05:15:56;;;;;;;10.80;4.30;;;22.90;63.00;;;;;;5003740;28;20580;-73
2023/09/27 05:18:24;;;;;;;9.50;4.23;;;23.00;63.00;;;;;;5006370;28;20711;-75
2023/09/27 05:20:51;;;;;;;7.00;4.17;;;23.10;62.60;;;;;;5000947;28;20189;-74
2023/09/27 05:23:19;;;;;;;4.97;3.60;;;22.80;63.20;;;;;;5006550;28;20244;-73
2023/09/27 05:25:47;;;;;;;8.97;3.37;;;22.70;63.70;;;;;;4999504;28;20189;-71
2023/09/27 05:28:15;;;;;;;5.50;3.20;;;22.80;63.70;;;;;;5001976;28;20244;-72
2023/09/27 05:30:43;;;;;;;8.93;3.23;;;22.80;63.30;;;;;;4999856;28;20247;-75
2023/09/27 05:33:10;;;;;;;8.63;3.03;;;22.50;64.30;;;;;;4999733;28;20231;-75
2023/09/27 05:35:37;;;;;;;6.43;3.00;;;22.50;65.10;;;;;;5004120;28;20659;-74
2023/09/27 05:38:04;;;;;;;7.10;3.17;;;22.50;65.00;;;;;;4996347;28;20178;-74
2023/09/27 05:40:32;;;;;;;10.30;3.13;;;22.30;65.50;;;;;;4997534;28;20186;-73
2023/09/27 05:43:02;;;;;;;6.00;2.57;;;22.40;65.80;;;;;;4992675;28;20177;-74
2023/09/27 05:45:29;;;;;;;7.10;2.77;;;22.30;66.10;;;;;;5004169;28;20193;-74
2023/09/27 05:47:57;;;;;;;7.57;2.80;;;22.30;67.20;;;;;;5000028;28;20209;-72
2023/09/27 05:50:24;;;;;;;6.50;2.63;;;22.40;66.10;;;;;;5007138;28;20269;-73
2023/09/27 05:52:51;;;;;;;5.40;2.90;;;23.30;63.90;;;;;;4998811;28;20277;-69
2023/09/27 05:55:20;;;;;;;9.83;2.90;;;23.40;61.90;;;;;;5008044;28;20192;-80
2023/09/27 05:57:49;;;;;;;7.83;3.00;;;23.30;63.10;;;;;;4994423;28;20722;-74
2023/09/27 06:00:26;;;;;;;5.87;2.67;;;22.80;65.70;;;;;;4998192;28;20241;-69
2023/09/27 06:02:53;;;;;;;6.80;2.40;;;22.30;66.20;;;;;;5004511;28;20217;-75
2023/09/27 06:05:21;;;;;;;9.57;3.27;;;22.00;67.60;;;;;;4986591;28;20185;-75
2023/09/27 06:07:48;;;;;;;7.67;3.93;;;22.00;67.80;;;;;;5004457;28;20644;-71
2023/09/27 06:10:16;;;;;;;7.97;3.97;;;22.00;68.30;;;;;;5005317;28;20225;-72
2023/09/27 06:12:44;;;;;;;7.50;2.93;;;21.80;68.40;;;;;;5002780;28;20276;-72
2023/09/27 06:15:12;;;;;;;8.57;3.47;;;21.70;68.00;;;;;;4998695;28;20760;-69
2023/09/27 06:17:40;;;;;;;7.00;3.37;;;21.60;68.30;;;;;;5003223;28;20284;-69
2023/09/27 06:20:12;;;;;;;8.70;3.40;;;21.50;69.00;;;;;;5001481;28;20587;-70
2023/09/27 06:22:40;;;;;;;11.13;3.10;;;21.40;70.10;;;;;;5003198;28;20226;-71
2023/09/27 06:25:08;;;;;;;7.60;2.83;;;21.30;70.50;;;;;;4990888;28;20185;-68
2023/09/27 06:27:35;;;;;;;7.77;3.33;;;21.20;70.90;;;;;;4990916;28;20188;-69
2023/09/27 06:30:03;;;;;;;9.33;3.40;;;21.00;71.90;;;;;;4992228;28;20747;-69
2023/09/27 06:32:31;;;;;;;8.57;3.43;;;20.90;71.60;;;;;;4994371;28;20240;-69
2023/09/27 06:34:58;;;;;;;10.20;3.37;;;20.90;70.90;;;;;;4990625;28;20189;-71
2023/09/27 06:37:25;;;;;;;8.67;3.70;;;20.90;70.40;;;;;;4992297;28;20582;-69
2023/09/27 06:39:53;;;;;;;6.63;3.30;;;20.90;71.40;;;;;;4992121;28;20540;-71
2023/09/27 06:42:23;;;;;;;9.43;3.60;;;20.80;72.00;;;;;;4992442;28;20229;-73
2023/09/27 06:44:50;;;;;;;5.97;3.60;;;20.90;72.00;;;;;;4992101;28;20644;-74
2023/09/27 06:47:18;;;;;;;6.47;3.57;;;20.80;71.60;;;;;;4988934;28;20293;-74
2023/09/27 06:49:45;;;;;;;6.20;3.30;;;20.80;71.70;;;;;;4992175;28;20675;-72
2023/09/27 06:52:12;;;;;;;7.50;3.90;;;20.80;71.60;;;;;;4992912;28;20239;-71
2023/09/27 06:54:40;;;;;;;8.23;3.90;;;20.70;71.60;;;;;;5000462;28;20193;-76
2023/09/27 06:57:08;;;;;;;6.57;3.03;;;20.60;71.60;;;;;;4993942;28;20185;-73
2023/09/27 06:59:36;;;;;;;7.00;3.70;;;20.50;72.50;;;;;;4993915;28;20601;-77
2023/09/27 07:02:03;;;;;;;7.67;3.53;;;20.30;72.40;;;;;;4993312;28;20217;-69
2023/09/27 07:04:31;;;;;;;11.07;4.10;;;20.40;73.00;;;;;;4992942;28;20533;-69
2023/09/27 07:06:58;;;;;;;7.93;3.70;;;20.50;73.20;;;;;;4991501;28;20186;-69
2023/09/27 07:09:26;;;;;;;8.50;3.70;;;20.40;73.70;;;;;;4993574;28;20174;-70
2023/09/27 07:11:53;;;;;;;10.77;4.10;;;20.40;74.40;;;;;;4990688;28;20221;-70
2023/09/27 07:14:21;;;;;;;8.37;4.13;;;20.40;74.90;;;;;;4992972;28;20182;-69
2023/09/27 07:16:48;;;;;;;7.53;3.50;;;20.30;75.40;;;;;;4993065;28;20701;-69
2023/09/27 07:19:17;;;;;;;13.20;3.97;;;20.30;75.90;;;;;;4976161;28;20197;-70
2023/09/27 07:21:45;;;;;;;10.50;3.57;;;20.40;76.40;;;;;;4991655;28;20540;-71
2023/09/27 07:24:13;;;;;;;12.43;3.50;;;20.30;77.10;;;;;;5012434;28;20726;-69
2023/09/27 07:26:45;;;;;;;13.10;3.67;;;20.30;77.30;;;;;;5013322;28;20256;-71
2023/09/27 07:29:12;;;;;;;9.90;3.50;;;20.20;77.30;;;;;;5006708;28;20193;-70
2023/09/27 07:31:40;;;;;;;14.37;4.27;;;20.10;77.70;;;;;;5013631;28;20220;-69
2023/09/27 07:34:07;;;;;;;12.60;3.80;;;20.00;77.80;;;;;;5004353;28;20691;-71
2023/09/27 07:36:34;;;;;;;12.33;3.80;;;20.00;77.70;;;;;;5011782;28;20268;-70
2023/09/27 07:39:03;;;;;;;9.00;3.17;;;20.00;78.00;;;;;;5012530;28;20177;-70
2023/09/27 07:41:31;;;;;;;6.90;3.77;;;19.90;78.10;;;;;;5012970;28;20560;-70
2023/09/27 07:43:59;;;;;;;6.73;2.90;;;19.90;78.00;;;;;;5011804;28;20234;-71
2023/09/27 07:46:29;;;;;;;11.73;3.40;;;19.90;77.90;;;;;;5012387;28;20663;-71
2023/09/27 07:48:56;;;;;;;10.17;3.67;;;19.90;77.80;;;;;;5011217;28;20193;-72
2023/09/27 07:51:24;;;;;;;9.90;3.40;;;19.90;77.70;;;;;;5012817;28;20225;-73
2023/09/27 07:53:53;;;;;;;8.33;3.07;;;20.00;77.80;;;;;;5013528;28;20173;-71
2023/09/27 07:56:36;;;;;;;5.70;2.90;;;20.00;77.90;;;;;;5013095;28;20223;-71
2023/09/27 07:59:04;;;;;;;9.70;3.60;;;20.00;77.70;;;;;;5012338;28;20224;-70
2023/09/27 08:01:33;;;;;;;10.83;3.03;;;20.00;78.20;;;;;;5013099;28;20639;-72
2023/09/27 08:04:06;;;;;;;9.80;3.70;;;19.90;78.40;;;;;;5012907;28;20189;-70
2023/09/27 08:06:33;;;;;;;10.17;3.57;;;19.80;78.70;;;;;;5012116;28;20196;-70
2023/09/27 08:09:02;;;;;;;10.07;3.20;;;19.80;79.10;;;;;;5012391;28;20189;-70
2023/09/27 08:11:29;;;;;;;12.13;3.77;;;19.70;79.10;;;;;;5007325;28;20581;-69
2023/09/27 08:13:56;;;;;;;8.23;3.30;;;19.80;79.40;;;;;;5012143;28;20189;-69
2023/09/27 08:16:26;;;;;;;7.57;3.37;;;19.70;79.50;;;;;;5012505;28;20185;-72
2023/09/27 08:18:53;;;;;;;11.33;4.00;;;19.70;79.60;;;;;;5012176;28;20192;-71
2023/09/27 08:21:20;;;;;;;11.47;3.73;;;19.70;79.70;;;;;;5012628;28;20272;-71
2023/09/27 08:23:50;;;;;;;12.00;4.30;;;19.70;79.70;;;;;;5013033;28;20237;-70
2023/09/27 08:26:17;;;;;;;5.60;3.27;;;19.70;79.50;;;;;;5013495;28;20236;-69
2023/09/27 08:28:45;;;;;;;12.27;3.57;;;19.70;79.60;;;;;;5013471;28;20177;-71
2023/09/27 08:31:12;;;;;;;16.23;4.20;;;19.80;79.90;;;;;;5013276;28;20217;-70
2023/09/27 08:33:41;;;;;;;10.93;3.73;;;19.70;79.90;;;;;;5013362;28;20189;-71
2023/09/27 08:36:08;;;;;;;9.53;4.00;;;19.70;79.90;;;;;;5013421;28;20212;-71
2023/09/27 08:38:35;;;;;;;15.20;3.57;;;19.70;80.10;;;;;;5012906;28;20662;-71
2023/09/27 08:41:06;;;;;;;12.80;4.10;;;19.80;80.20;;;;;;5011790;28;20232;-70
2023/09/27 08:43:34;;;;;;;11.83;3.83;;;19.80;80.10;;;;;;5013095;28;20189;-71
2023/09/27 08:46:03;;;;;;;9.83;3.47;;;19.90;79.90;;;;;;5013445;28;20174;-71
2023/09/27 08:48:31;;;;;;;14.00;4.23;;;19.90;80.00;;;;;;5013538;28;20185;-70
2023/09/27 08:51:04;;;;;;;12.17;3.57;;;19.90;80.00;;;;;;5013002;28;20197;-71
2023/09/27 08:53:34;;;;;;;10.33;4.10;;;20.00;79.90;;;;;;5012694;28;20169;-70
2023/09/27 08:56:04;;;;;;;15.70;4.43;;;20.00;80.00;;;;;;5013218;28;20779;-72
2023/09/27 08:58:34;;;;;;;14.07;4.47;;;20.00;80.10;;;;;;5013170;28;20681;-71
2023/09/27 09:01:01;;;;;;;13.63;3.60;;;20.00;80.10;;;;;;5013329;28;20173;-71
2023/09/27 09:03:30;;;;;;;11.83;3.90;;;20.00;80.10;;;;;;5012923;28;20574;-72
2023/09/27 09:05:57;;;;;;;14.57;4.33;;;20.00;80.10;;;;;;5013078;28;20292;-70
2023/09/27 09:08:25;;;;;;;11.03;4.03;;;20.10;80.10;;;;;;5013103;28;20189;-70
2023/09/27 09:10:55;;;;;;;11.83;3.87;;;20.10;80.20;;;;;;5013032;28;20201;-70
2023/09/27 09:13:22;;;;;;;14.23;4.50;;;20.00;80.20;;;;;;5013038;28;20185;-70
2023/09/27 09:15:51;;;;;;;17.47;4.93;;;20.00;80.40;;;;;;5013060;28;20204;-70
2023/09/27 09:18:29;;;;;;;12.23;4.83;;;20.10;80.40;;;;;;5013134;28;20239;-70
2023/09/27 09:21:08;;;;;;;13.17;4.00;;;20.00;80.50;;;;;;5012883;28;20255;-73
2023/09/27 09:23:37;;;;;;;8.80;3.70;;;19.90;80.50;;;;;;5010785;28;20687;-70
2023/09/27 09:26:11;;;;;;;9.80;3.47;;;20.00;80.80;;;;;;5016718;28;20580;-70
2023/09/27 09:29:02;;;;;;;19.30;4.00;;;20.00;80.70;;;;;;5016911;28;20165;-70
2023/09/27 09:31:30;;;;;;;11.57;4.10;;;20.00;80.80;;;;;;5016456;28;20232;-71
2023/09/27 09:34:09;;;;;;;9.80;3.97;;;20.00;80.70;;;;;;5016568;28;20260;-71
2023/09/27 09:36:37;;;;;;;12.53;4.00;;;20.00;81.00;;;;;;5016941;28;20177;-70
2023/09/27 09:39:13;;;;;;;12.63;4.03;;;20.00;81.00;;;;;;5016377;28;20170;-70
2023/09/27 09:41:52;;;;;;;16.07;5.10;;;20.00;80.80;;;;;;5016230;28;20181;-71
2023/09/27 09:44:22;;;;;;;17.37;4.67;;;20.00;80.70;;;;;;5016390;28;20216;-71
2023/09/27 09:46:53;;;;;;;16.70;5.17;;;19.90;80.60;;;;;;5016599;28;20257;-70
2023/09/27 09:49:21;;;;;;;13.77;4.13;;;19.90;80.70;;;;;;5016019;28;20174;-71
2023/09/27 09:51:50;;;;;;;9.90;4.37;;;19.90;80.70;;;;;;5015891;28;20671;-72
2023/09/27 09:54:36;;;;;;;15.60;4.13;;;19.80;80.70;;;;;;5016073;28;20185;-70
2023/09/27 09:57:05;;;;;;;17.53;4.50;;;19.80;80.70;;;;;;5016417;28;20185;-70
2023/09/27 09:59:56;;;;;;;15.40;5.10;;;19.80;80.60;;;;;;5016336;28;20188;-74
2023/09/27 10:02:28;;;;;;;16.97;6.30;;;19.70;80.80;;;;;;5005881;28;20185;-73
2023/09/27 10:04:59;;;;;;;13.13;7.13;;;19.70;81.10;;;;;;5016004;28;20308;-70
2023/09/27 10:07:29;;;;;;;13.00;4.57;;;19.70;81.20;;;;;;5016304;28;20662;-70
2023/09/27 10:09:57;;;;;;;11.60;3.90;;;19.60;81.30;;;;;;5015839;28;20169;-70
2023/09/27 10:12:26;;;;;;;13.63;4.40;;;19.60;81.30;;;;;;5014516;28;20279;-73
2023/09/27 10:14:54;;;;;;;13.93;4.00;;;19.50;81.30;;;;;;5015978;28;20526;-71
2023/09/27 10:17:22;;;;;;;14.00;4.37;;;19.50;81.40;;;;;;5014649;28;20181;-72
2023/09/27 10:20:14;;;;;;;12.30;5.23;;;19.50;81.20;;;;;;5025942;28;20196;-74
2023/09/27 10:22:46;;;;;;;13.07;5.70;;;19.50;81.30;;;;;;5011189;28;20225;-75
2023/09/27 10:25:30;;;;;;;14.70;5.20;;;19.50;81.50;;;;;;5015762;28;20177;-74
2023/09/27 10:28:06;;;;;;;15.17;4.47;;;19.50;81.50;;;;;;5012116;28;20197;-74
2023/09/27 10:30:45;;;;;;;12.60;4.90;;;19.50;81.60;;;;;;5007202;28;20192;-75
2023/09/27 10:33:19;;;;;;;16.87;5.00;;;19.40;81.60;;;;;;5015577;28;20165;-75
2023/09/27 10:36:10;;;;;;;9.73;4.10;;;19.40;81.60;;;;;;5014914;28;20176;-71
2023/09/27 10:38:47;;;;;;;14.67;4.40;;;19.40;81.50;;;;;;5023814;28;20535;-74
2023/09/27 10:41:32;;;;;;;9.07;3.80;;;19.30;81.70;;;;;;5035244;28;20203;-76
2023/09/27 10:44:03;;;;;;;12.03;4.20;;;19.40;81.70;;;;;;5034656;28;20204;-75
2023/09/27 10:46:48;;;;;;;13.20;4.47;;;19.40;81.70;;;;;;5035082;28;20180;-71
2023/09/27 10:49:26;;;;;;;17.20;5.23;;;19.40;81.60;;;;;;5012634;28;20727;-75
2023/09/27 10:51:54;;;;;;;20.57;5.47;;;19.30;81.70;;;;;;5001571;28;20223;-72
2023/09/27 10:54:24;;;;;;;11.57;4.07;;;19.40;81.60;;;;;;5015052;28;20182;-74
2023/09/27 10:56:56;;;;;;;12.57;4.30;;;19.30;81.60;;;;;;5015214;28;20196;-76
2023/09/27 10:59:30;;;;;;;8.10;4.10;;;19.30;81.40;;;;;;5029543;28;20196;-72
2023/09/27 11:02:03;;;;;;;12.23;4.30;;;19.30;81.30;;;;;;5035021;28;20627;-74
2023/09/27 11:04:32;;;;;;;12.90;4.00;;;19.30;81.20;;;;;;5034557;28;20543;-75
2023/09/27 11:07:00;;;;;;;12.40;4.60;;;19.30;81.30;;;;;;5034470;28;20184;-73
2023/09/27 11:09:27;;;;;;;13.37;4.63;;;19.30;81.40;;;;;;5030862;28;20189;-73
2023/09/27 11:11:57;;;;;;;11.57;4.50;;;19.30;81.40;;;;;;5034625;28;20270;-72
2023/09/27 11:14:32;;;;;;;12.00;4.27;;;19.30;81.10;;;;;;5033153;28;20712;-73
2023/09/27 11:17:25;;;;;;;13.47;4.43;;;19.30;81.30;;;;;;5034575;28;20184;-74
2023/09/27 11:19:53;;;;;;;15.57;4.60;;;19.20;81.50;;;;;;5013416;28;20537;-70
2023/09/27 11:22:30;;;;;;;14.17;4.40;;;19.20;81.60;;;;;;5023916;28;20252;-70
2023/09/27 11:24:58;;;;;;;12.67;4.27;;;19.30;81.60;;;;;;5014684;28;20176;-73
2023/09/27 11:27:25;;;;;;;13.13;4.60;;;19.20;81.60;;;;;;5013048;28;20170;-72
2023/09/27 11:29:56;;;;;;;11.57;4.93;;;19.20;81.80;;;;;;5032684;28;20212;-72
2023/09/27 11:32:23;;;;;;;16.63;4.93;;;19.20;81.80;;;;;;5034314;28;20204;-73
2023/09/27 11:34:55;;;;;;;13.67;4.67;;;19.20;81.90;;;;;;5033559;28;20173;-72
2023/09/27 11:37:23;;;;;;;12.90;4.40;;;19.20;81.80;;;;;;5032193;28;20191;-72
2023/09/27 11:39:54;;;;;;;15.30;4.47;;;19.20;81.80;;;;;;5000317;28;20183;-70
2023/09/27 11:42:27;;;;;;;13.73;4.43;;;19.10;81.90;;;;;;5033987;28;20208;-71
2023/09/27 11:45:08;;;;;;;12.43;3.63;;;19.10;82.00;;;;;;5029498;28;20185;-73
2023/09/27 11:47:52;;;;;;;18.87;5.53;;;19.20;81.90;;;;;;5016209;28;20706;-72
2023/09/27 11:50:22;;;;;;;12.67;4.93;;;19.20;82.00;;;;;;5012121;28;20177;-70
2023/09/27 11:52:49;;;;;;;10.33;4.40;;;19.20;82.00;;;;;;5012165;28;20181;-71
2023/09/27 11:55:18;;;;;;;9.73;4.03;;;19.10;81.70;;;;;;5012099;28;20169;-71
2023/09/27 11:57:46;;;;;;;10.90;4.20;;;19.10;81.70;;;;;;5012172;28;20243;-73
2023/09/27 12:00:15;;;;;;;11.83;4.30;;;19.10;81.60;;;;;;5012045;28;20527;-73
2023/09/27 12:02:43;;;;;;;13.60;4.13;;;19.10;81.60;;;;;;5018349;28;20196;-74
2023/09/27 12:05:10;;;;;;;10.30;3.80;;;19.20;81.40;;;;;;5032520;28;20196;-74
2023/09/27 12:07:38;;;;;;;12.13;3.97;;;19.20;81.40;;;;;;5015898;28;20633;-71
2023/09/27 12:10:05;;;;;;;11.40;3.57;;;19.20;81.40;;;;;;5033512;28;20222;-75
2023/09/27 12:12:33;;;;;;;10.50;3.30;;;19.20;81.40;;;;;;5029809;28;20235;-70
2023/09/27 12:15:01;;;;;;;12.67;3.40;;;19.20;81.40;;;;;;5013326;28;20189;-75
2023/09/27 12:17:28;;;;;;;14.13;3.50;;;19.20;81.50;;;;;;5013286;28;20213;-72
2023/09/27 12:19:56;;;;;;;14.63;3.70;;;19.20;81.60;;;;;;5013707;28;20170;-73
2023/09/27 12:22:25;;;;;;;8.20;3.83;;;19.20;81.80;;;;;;5013437;28;20240;-76
2023/09/27 12:24:53;;;;;;;13.40;3.67;;;19.20;81.90;;;;;;5013455;28;20197;-72
2023/09/27 12:27:20;;;;;;;14.30;4.00;;;19.20;82.10;;;;;;5012713;28;20179;-72
2023/09/27 12:29:48;;;;;;;14.73;4.37;;;19.20;82.60;;;;;;5012177;28;20193;-71
2023/09/27 12:32:15;;;;;;;10.50;4.03;;;19.20;83.20;;;;;;5027227;28;20216;-74
2023/09/27 12:34:43;;;;;;;14.60;4.57;;;19.20;83.50;;;;;;5012770;28;20169;-72
2023/09/27 12:37:10;;;;;;;9.57;4.27;;;19.10;84.10;;;;;;5013346;28;20215;-72
2023/09/27 12:39:38;;;;;;;7.47;3.77;;;19.10;84.60;;;;;;5006911;28;20268;-72
2023/09/27 12:42:05;;;;;;;10.47;4.33;;;19.00;85.40;;;;;;5011576;28;20304;-73
2023/09/27 12:44:33;;;;;;;13.27;4.87;;;19.00;85.60;;;;;;5013448;28;20601;-73
2023/09/27 12:47:00;;;;;;;15.03;4.87;;;19.00;85.90;;;;;;5013204;28;20253;-72
2023/09/27 12:49:27;;;;;;;12.53;4.83;;;19.00;86.10;;;;;;5013082;28;20588;-71
2023/09/27 12:52:43;;;;;;;9.70;4.20;;;19.00;86.30;;;;;;5013865;28;20259;-72
2023/09/27 12:55:13;;;;;;;16.97;4.90;;;18.90;86.40;;;;;;5002865;28;20181;-72
2023/09/27 12:57:52;;;;;;;11.93;3.80;;;19.00;86.70;;;;;;5012542;28;20181;-73
2023/09/27 13:00:24;;;;;;;16.90;4.40;;;18.90;86.80;;;;;;5016251;28;20639;-71
2023/09/27 13:02:51;;;;;;;14.70;5.63;;;18.90;87.00;;;;;;5014587;28;20192;-71
2023/09/27 13:05:19;;;;;;;14.70;5.73;;;18.90;86.90;;;;;;5029405;28;20272;-71
2023/09/27 13:07:46;;;;;;;16.87;5.43;;;18.90;87.10;;;;;;5016580;28;20778;-72
2023/09/27 13:10:13;;;;;;;14.27;6.40;;;18.90;87.20;;;;;;5016617;28;20232;-70
2023/09/27 13:12:41;;;;;;;18.10;7.33;;;18.90;87.40;;;;;;5004096;28;20232;-74